Terminal Aerodrome Forecast
Issued by NWS

Home | Current Version | Previous Version | Text Only | Print | Product List | Glossary On
Versions: 1 2 3 4 5 6 7 8 9 10 11 12 13 14 15 16 17 18 19 20
000
FTUS41 KOKX 011700
TAFSWF
TAF
KSWF 011737Z 0118/0224 00000KT 2SM -SN SCT004 BKN020
     FM012000 00000KT 1SM -SN OVC008
      TEMPO 0121/0201 1/2SM SN BKN004
     FM020200 00000KT 2SM -SN OVC010
     FM020500 VRB03KT 4SM BR OVC015
     FM021000 29006KT P6SM SCT015 BKN025
     FM021200 30012G20KT P6SM SCT025 BKN050
     FM021500 30018G27KT P6SM SCT250
      AMD NOT SKED=

USA.gov is the U.S. government's official web portal to all federal, state and local government web resources and services.